Time;durP1;ratioP1;P1;durP2;ratioP2;P2;SDS_P1;SDS_P2;PMS_P1;PMS_P2;Temp;Humidity;BMP_temperature;BMP_pressure;BME280_temperature;BME280_humidity;BME280_pressure;Samples;Min_cycle;Max_cycle;Signal;HPM_P1;HPM_P2
2022/05/22 00:02:09;;;;;;;9.88;6.30;;;;;;;;;;10406628;28;20030;-73
2022/05/22 00:07:09;;;;;;;13.52;6.90;;;;;;;;;;10406197;28;20047;-79
2022/05/22 00:12:10;;;;;;;7.23;5.33;;;;;;;;;;10405131;28;20087;-73
2022/05/22 00:17:10;;;;;;;8.00;4.90;;;;;;;;;;10406445;28;20037;-73
2022/05/22 00:22:11;;;;;;;9.05;4.95;;;;;;;;;;10405032;28;20469;-80
2022/05/22 00:27:11;;;;;;;10.03;5.10;;;;;;;;;;10400616;28;20053;-76
2022/05/22 00:32:12;;;;;;;7.70;5.28;;;;;;;;;;10406020;28;20108;-73
2022/05/22 00:37:12;;;;;;;10.35;4.90;;;;;;;;;;10406500;28;20096;-77
2022/05/22 00:42:14;;;;;;;8.30;6.13;;;;;;;;;;10389796;28;20033;-71
2022/05/22 00:47:14;;;;;;;6.03;5.00;;;;;;;;;;10406378;28;20040;-75
2022/05/22 00:52:18;;;;;;;8.77;4.93;;;;;;;;;;10406151;28;20033;-76
2022/05/22 00:57:24;;;;;;;13.02;4.88;;;;;;;;;;10405882;28;20083;-72
2022/05/22 01:02:25;;;;;;;10.05;4.35;;;;;;;;;;10405769;28;20043;-73
2022/05/22 01:07:26;;;;;;;8.27;5.53;;;;;;;;;;10405250;28;20021;-76
2022/05/22 01:12:26;;;;;;;6.00;4.80;;;;;;;;;;10405117;28;20026;-73
2022/05/22 01:17:26;;;;;;;7.25;5.20;;;;;;;;;;10388796;28;20029;-73
2022/05/22 01:22:27;;;;;;;6.28;4.60;;;;;;;;;;10404743;28;20021;-74
2022/05/22 01:27:27;;;;;;;7.50;4.45;;;;;;;;;;10404551;28;20049;-76
2022/05/22 01:32:28;;;;;;;12.98;4.75;;;;;;;;;;10404642;28;20112;-77
2022/05/22 01:37:28;;;;;;;7.60;4.33;;;;;;;;;;10405472;28;20079;-72
2022/05/22 01:42:28;;;;;;;7.68;3.88;;;;;;;;;;10404151;28;20083;-79
2022/05/22 01:47:31;;;;;;;11.68;3.92;;;;;;;;;;10405115;28;20032;-73
2022/05/22 01:52:32;;;;;;;10.30;4.10;;;;;;;;;;10403671;28;20428;-73
2022/05/22 01:57:32;;;;;;;4.68;3.45;;;;;;;;;;10404547;28;20033;-72
2022/05/22 02:02:32;;;;;;;6.60;3.30;;;;;;;;;;10405951;28;20045;-74
2022/05/22 02:12:52;;;;;;;12.80;3.33;;;;;;;;;;10404602;28;20061;-74
2022/05/22 02:17:53;;;;;;;4.63;3.13;;;;;;;;;;10402889;28;20112;-73
2022/05/22 02:22:54;;;;;;;5.60;2.90;;;;;;;;;;10403007;28;20032;-73
2022/05/22 02:27:55;;;;;;;4.80;2.40;;;;;;;;;;10402402;28;20084;-75
2022/05/22 02:32:55;;;;;;;5.20;2.50;;;;;;;;;;10401065;28;20044;-74
2022/05/22 02:37:56;;;;;;;5.82;3.47;;;;;;;;;;10400347;28;20037;-77
2022/05/22 02:42:56;;;;;;;10.07;2.67;;;;;;;;;;10400831;28;20025;-75
2022/05/22 02:47:57;;;;;;;7.35;2.35;;;;;;;;;;10400924;28;20028;-72
2022/05/22 02:52:57;;;;;;;2.53;1.77;;;;;;;;;;10400689;28;20040;-78
2022/05/22 02:57:58;;;;;;;2.87;1.83;;;;;;;;;;10400964;28;20028;-72
2022/05/22 03:02:58;;;;;;;4.23;1.57;;;;;;;;;;10400417;28;20778;-73
2022/05/22 03:07:59;;;;;;;2.25;1.95;;;;;;;;;;10400642;28;20672;-72
2022/05/22 03:12:59;;;;;;;2.45;1.77;;;;;;;;;;10400125;28;20029;-72
2022/05/22 03:17:59;;;;;;;2.83;2.13;;;;;;;;;;10383933;28;20022;-71
2022/05/22 03:23:00;;;;;;;2.03;1.60;;;;;;;;;;10400401;28;20025;-71
2022/05/22 03:28:00;;;;;;;3.38;1.85;;;;;;;;;;10397718;28;20049;-73
2022/05/22 03:33:00;;;;;;;4.72;1.52;;;;;;;;;;10399903;28;20087;-75
2022/05/22 03:38:04;;;;;;;8.07;2.25;;;;;;;;;;10399937;28;20017;-73
2022/05/22 03:43:04;;;;;;;10.13;2.38;;;;;;;;;;10399925;28;20128;-73
2022/05/22 03:48:04;;;;;;;3.03;1.10;;;;;;;;;;10399880;28;20528;-75
2022/05/22 03:53:05;;;;;;;1.45;1.00;;;;;;;;;;10406361;28;20570;-73
2022/05/22 03:58:05;;;;;;;2.58;1.70;;;;;;;;;;10408602;28;20390;-75
2022/05/22 04:03:06;;;;;;;3.10;1.17;;;;;;;;;;10409202;28;20447;-73
2022/05/22 04:08:06;;;;;;;3.22;1.17;;;;;;;;;;10408266;28;20560;-74
2022/05/22 04:13:06;;;;;;;2.92;1.20;;;;;;;;;;10414258;28;20504;-74
2022/05/22 04:18:07;;;;;;;1.50;0.85;;;;;;;;;;10408804;28;20037;-76
2022/05/22 04:28:27;;;;;;;2.70;1.42;;;;;;;;;;10408843;28;20666;-73
2022/05/22 04:33:27;;;;;;;4.80;1.33;;;;;;;;;;10406908;28;20064;-72
2022/05/22 04:38:27;;;;;;;2.38;1.20;;;;;;;;;;10406465;28;20120;-72
2022/05/22 04:43:28;;;;;;;4.10;1.30;;;;;;;;;;10406452;28;20021;-72
2022/05/22 04:48:28;;;;;;;2.03;1.40;;;;;;;;;;10405839;28;20030;-73
2022/05/22 04:53:29;;;;;;;1.92;1.27;;;;;;;;;;10406716;28;20041;-72
2022/05/22 04:58:29;;;;;;;2.22;1.35;;;;;;;;;;10405939;28;20026;-73
2022/05/22 05:03:29;;;;;;;3.13;1.20;;;;;;;;;;10405404;28;20018;-77
2022/05/22 05:08:30;;;;;;;1.52;1.20;;;;;;;;;;10405519;28;20026;-76
2022/05/22 05:13:31;;;;;;;3.53;1.58;;;;;;;;;;10404670;28;20025;-76
2022/05/22 05:18:31;;;;;;;4.50;1.50;;;;;;;;;;10405831;28;20115;-71
2022/05/22 05:23:32;;;;;;;2.90;1.10;;;;;;;;;;10388452;28;20334;-73
2022/05/22 05:28:33;;;;;;;2.08;1.40;;;;;;;;;;10405805;28;20052;-77
2022/05/22 05:33:33;;;;;;;7.45;1.60;;;;;;;;;;10364930;28;20024;-76
2022/05/22 05:38:34;;;;;;;2.30;1.10;;;;;;;;;;10388654;28;20492;-73
2022/05/22 05:43:34;;;;;;;4.68;1.25;;;;;;;;;;10403665;28;20101;-76
2022/05/22 05:48:34;;;;;;;1.75;1.10;;;;;;;;;;10402877;28;20041;-73
2022/05/22 05:53:35;;;;;;;7.35;1.83;;;;;;;;;;10405253;28;20037;-76
2022/05/22 05:58:35;;;;;;;6.53;1.85;;;;;;;;;;10385061;28;20520;-73
2022/05/22 06:03:35;;;;;;;1.40;1.13;;;;;;;;;;10381942;28;20056;-74
2022/05/22 06:08:36;;;;;;;2.95;1.35;;;;;;;;;;10382288;28;20042;-77
2022/05/22 06:13:36;;;;;;;3.67;1.83;;;;;;;;;;10387534;28;20381;-73
2022/05/22 06:18:36;;;;;;;2.65;1.38;;;;;;;;;;10383038;28;20030;-78
2022/05/22 06:23:38;;;;;;;4.47;1.60;;;;;;;;;;10386337;28;20029;-74
2022/05/22 06:28:38;;;;;;;8.55;4.22;;;;;;;;;;10392706;28;20052;-73
2022/05/22 06:33:39;;;;;;;1.73;1.50;;;;;;;;;;10382785;28;20021;-77
2022/05/22 06:43:58;;;;;;;4.25;1.67;;;;;;;;;;10380736;28;20112;-73
2022/05/22 06:48:59;;;;;;;3.08;1.73;;;;;;;;;;10388175;28;20029;-74
2022/05/22 06:53:59;;;;;;;2.35;1.55;;;;;;;;;;10387733;28;20033;-76
2022/05/22 06:59:00;;;;;;;2.08;1.38;;;;;;;;;;10382132;28;20060;-73
2022/05/22 07:04:00;;;;;;;5.93;1.55;;;;;;;;;;10383862;28;20537;-74
2022/05/22 07:09:01;;;;;;;4.70;1.90;;;;;;;;;;10383390;28;20120;-73
2022/05/22 07:14:01;;;;;;;8.07;1.88;;;;;;;;;;10374877;28;20014;-72
2022/05/22 07:19:02;;;;;;;3.60;2.20;;;;;;;;;;10359975;28;20024;-74
2022/05/22 07:24:02;;;;;;;4.57;2.20;;;;;;;;;;10360970;28;20117;-74
2022/05/22 07:29:02;;;;;;;5.67;2.20;;;;;;;;;;10366834;28;20041;-72
2022/05/22 07:34:03;;;;;;;4.27;1.90;;;;;;;;;;10367487;28;20013;-75
2022/05/22 07:39:04;;;;;;;5.65;1.85;;;;;;;;;;10373877;28;20292;-72
2022/05/22 07:44:04;;;;;;;3.88;1.70;;;;;;;;;;10375959;28;20021;-77
2022/05/22 07:49:04;;;;;;;7.17;1.80;;;;;;;;;;10374556;28;20030;-74
2022/05/22 07:54:04;;;;;;;12.93;1.83;;;;;;;;;;10389007;28;20134;-74
2022/05/22 07:59:05;;;;;;;4.57;1.30;;;;;;;;;;10385830;28;20416;-74
2022/05/22 08:04:06;;;;;;;2.88;1.38;;;;;;;;;;10396439;28;20018;-76
2022/05/22 08:09:06;;;;;;;3.47;1.40;;;;;;;;;;10384511;28;20037;-77
2022/05/22 08:14:06;;;;;;;6.93;1.43;;;;;;;;;;10382719;28;20029;-77
2022/05/22 08:19:07;;;;;;;3.70;1.80;;;;;;;;;;10360549;28;20359;-78
2022/05/22 08:24:07;;;;;;;6.10;1.80;;;;;;;;;;10387994;28;20026;-76
2022/05/22 08:29:07;;;;;;;8.05;1.48;;;;;;;;;;10377670;28;20064;-78
2022/05/22 08:34:07;;;;;;;9.00;2.03;;;;;;;;;;10376390;28;20651;-70
2022/05/22 08:39:08;;;;;;;4.77;1.70;;;;;;;;;;10360506;28;20026;-71
2022/05/22 08:44:12;;;;;;;3.67;1.80;;;;;;;;;;10365326;28;20040;-74
2022/05/22 08:49:24;;;;;;;6.63;1.80;;;;;;;;;;10384639;28;20378;-77
2022/05/22 08:54:33;;;;;;;5.97;1.50;;;;;;;;;;10378775;28;20091;-77
2022/05/22 08:59:37;;;;;;;6.78;1.60;;;;;;;;;;10368574;28;20722;-75
2022/05/22 09:04:37;;;;;;;3.80;1.67;;;;;;;;;;10378671;28;20030;-78
2022/05/22 09:09:39;;;;;;;5.57;2.53;;;;;;;;;;10385218;28;20018;-77
2022/05/22 09:14:41;;;;;;;2.97;1.80;;;;;;;;;;10383138;28;20036;-75
2022/05/22 09:19:45;;;;;;;6.47;1.83;;;;;;;;;;10373242;28;20413;-76
2022/05/22 09:24:52;;;;;;;3.60;1.45;;;;;;;;;;10380319;28;20030;-77
2022/05/22 09:29:55;;;;;;;3.47;1.63;;;;;;;;;;10388186;28;20127;-78
2022/05/22 09:40:04;;;;;;;5.43;2.55;;;;;;;;;;10387729;28;20058;-76
2022/05/22 09:45:23;;;;;;;5.60;1.88;;;;;;;;;;10385519;28;20430;-78
2022/05/22 09:50:42;;;;;;;4.50;2.17;;;;;;;;;;10379115;28;20464;-71
2022/05/22 09:55:51;;;;;;;3.80;1.40;;;;;;;;;;10392543;28;20139;-75
2022/05/22 10:01:03;;;;;;;3.50;1.10;;;;;;;;;;10385325;28;20104;-76
2022/05/22 10:06:22;;;;;;;2.50;1.33;;;;;;;;;;10375174;28;20026;-76
2022/05/22 10:11:31;;;;;;;1.98;1.02;;;;;;;;;;10374321;28;20025;-77
2022/05/22 10:16:35;;;;;;;5.05;1.73;;;;;;;;;;10391088;28;20069;-72
2022/05/22 10:21:35;;;;;;;4.88;0.95;;;;;;;;;;10393396;28;20050;-74
2022/05/22 10:26:38;;;;;;;5.00;1.17;;;;;;;;;;10386594;28;20025;-75
2022/05/22 10:31:46;;;;;;;3.03;1.20;;;;;;;;;;10387204;28;20406;-72
2022/05/22 10:36:52;;;;;;;2.88;1.23;;;;;;;;;;10387237;28;20068;-75
2022/05/22 10:47:29;;;;;;;4.10;1.27;;;;;;;;;;10385443;28;20045;-74
2022/05/22 10:52:31;;;;;;;4.05;1.52;;;;;;;;;;10383825;28;20113;-75
2022/05/22 10:57:32;;;;;;;5.68;1.83;;;;;;;;;;10387725;28;20028;-75
2022/05/22 11:02:32;;;;;;;4.45;1.50;;;;;;;;;;10391034;28;20418;-72
2022/05/22 11:07:34;;;;;;;3.40;1.73;;;;;;;;;;10391263;28;20571;-75
2022/05/22 11:12:34;;;;;;;4.65;1.70;;;;;;;;;;10404528;28;20104;-75
2022/05/22 11:17:35;;;;;;;3.78;1.65;;;;;;;;;;10397709;28;20152;-75
2022/05/22 11:22:35;;;;;;;4.93;1.83;;;;;;;;;;10402560;28;20094;-77
2022/05/22 11:27:54;;;;;;;5.63;2.22;;;;;;;;;;10401265;28;20344;-74
2022/05/22 11:33:13;;;;;;;4.78;1.27;;;;;;;;;;10400107;28;20080;-71
2022/05/22 11:38:28;;;;;;;2.88;2.10;;;;;;;;;;10405981;28;20053;-71
2022/05/22 11:43:48;;;;;;;4.55;1.50;;;;;;;;;;10399843;28;20037;-72
2022/05/22 11:49:00;;;;;;;8.20;1.80;;;;;;;;;;10402481;28;20680;-77
2022/05/22 11:54:03;;;;;;;4.88;1.52;;;;;;;;;;10401330;28;20746;-73
2022/05/22 11:59:12;;;;;;;7.80;1.50;;;;;;;;;;10402025;28;20509;-70
2022/05/22 12:04:22;;;;;;;7.93;1.23;;;;;;;;;;10370569;28;20025;-72
2022/05/22 12:09:31;;;;;;;5.00;2.15;;;;;;;;;;10361429;28;20037;-70
2022/05/22 12:14:39;;;;;;;8.70;1.58;;;;;;;;;;10360505;28;20029;-70
2022/05/22 12:19:39;;;;;;;;;;;;;;;;;;10361100;28;20032;-70
2022/05/22 12:24:45;;;;;;;3.92;1.48;;;;;;;;;;10362696;28;19916;-74
2022/05/22 12:29:57;;;;;;;2.17;1.63;;;;;;;;;;10362274;28;20026;-70
2022/05/22 12:34:59;;;;;;;2.88;1.70;;;;;;;;;;10360244;28;20493;-70
2022/05/22 12:40:17;;;;;;;3.17;1.60;;;;;;;;;;10359567;28;20081;-70
2022/05/22 12:45:18;;;;;;;11.23;1.75;;;;;;;;;;10367551;28;20076;-73
2022/05/22 12:50:35;;;;;;;3.75;1.65;;;;;;;;;;10373594;28;20022;-74
2022/05/22 12:55:38;;;;;;;2.43;1.70;;;;;;;;;;10359185;28;20411;-74
2022/05/22 13:00:38;;;;;;;3.35;1.70;;;;;;;;;;10360823;28;20018;-70
2022/05/22 13:05:38;;;;;;;2.90;1.60;;;;;;;;;;10359432;28;20216;-70
2022/05/22 13:10:42;;;;;;;2.13;1.73;;;;;;;;;;10358212;28;20116;-74
2022/05/22 13:15:57;;;;;;;2.75;1.70;;;;;;;;;;10358057;28;20114;-73
2022/05/22 13:21:02;;;;;;;6.93;1.70;;;;;;;;;;10374765;28;20409;-73
2022/05/22 13:26:04;;;;;;;2.65;1.60;;;;;;;;;;10384243;28;20030;-73
2022/05/22 13:31:12;;;;;;;1.63;1.50;;;;;;;;;;10377377;28;20022;-73
2022/05/22 13:36:12;;;;;;;5.20;1.90;;;;;;;;;;10385041;28;20084;-74
2022/05/22 13:41:12;;;;;;;3.45;2.00;;;;;;;;;;10391797;28;20125;-74
2022/05/22 13:46:31;;;;;;;5.78;2.00;;;;;;;;;;10384106;28;20080;-68
2022/05/22 13:56:59;;;;;;;5.47;1.90;;;;;;;;;;10387731;28;20141;-73
2022/05/22 14:02:02;;;;;;;3.92;2.10;;;;;;;;;;10389262;28;20033;-69
2022/05/22 14:07:05;;;;;;;3.72;1.83;;;;;;;;;;10390246;28;20054;-70
2022/05/22 14:12:07;;;;;;;5.05;2.28;;;;;;;;;;10392873;28;20025;-74
2022/05/22 14:17:09;;;;;;;3.42;1.90;;;;;;;;;;10389393;28;20116;-76
2022/05/22 14:22:15;;;;;;;3.47;1.48;;;;;;;;;;10390095;28;20037;-75
2022/05/22 14:27:23;;;;;;;5.22;2.08;;;;;;;;;;10391227;28;20408;-69
2022/05/22 14:32:23;;;;;;;4.30;1.67;;;;;;;;;;10389030;28;20623;-71
2022/05/22 14:37:23;;;;;;;10.00;1.90;;;;;;;;;;10379321;28;20048;-70
2022/05/22 14:42:26;;;;;;;4.70;2.13;;;;;;;;;;10387468;28;20034;-73
2022/05/22 14:47:29;;;;;;;3.30;2.10;;;;;;;;;;10384916;28;20025;-73
2022/05/22 14:52:40;;;;;;;5.15;1.42;;;;;;;;;;10390330;28;20029;-75
2022/05/22 14:57:45;;;;;;;5.13;1.90;;;;;;;;;;10374510;28;20029;-74
2022/05/22 15:02:49;;;;;;;4.70;1.83;;;;;;;;;;10378176;28;20029;-76
2022/05/22 15:07:51;;;;;;;3.78;2.13;;;;;;;;;;10381606;28;20429;-77
2022/05/22 15:12:52;;;;;;;5.43;1.88;;;;;;;;;;10380414;28;20859;-75
2022/05/22 15:18:01;;;;;;;4.53;2.00;;;;;;;;;;10382192;28;20025;-77
2022/05/22 15:28:24;;;;;;;10.48;1.95;;;;;;;;;;10376474;28;20163;-74
2022/05/22 15:33:27;;;;;;;2.50;1.77;;;;;;;;;;10366881;28;20036;-76
2022/05/22 15:38:28;;;;;;;2.78;1.77;;;;;;;;;;10379199;28;20439;-75
2022/05/22 15:43:31;;;;;;;6.55;1.90;;;;;;;;;;10382447;28;20299;-78
2022/05/22 15:54:03;;;;;;;2.83;1.25;;;;;;;;;;10384763;28;20030;-74
2022/05/22 15:59:05;;;;;;;3.00;1.73;;;;;;;;;;10390704;28;20025;-74
2022/05/22 16:04:06;;;;;;;3.92;2.00;;;;;;;;;;10387515;28;20053;-73
2022/05/22 16:09:08;;;;;;;5.28;1.77;;;;;;;;;;10387282;28;20095;-75
2022/05/22 16:14:11;;;;;;;3.97;2.10;;;;;;;;;;10388687;28;20076;-74
2022/05/22 16:19:15;;;;;;;2.75;1.98;;;;;;;;;;10382653;28;20085;-75
2022/05/22 16:24:16;;;;;;;7.70;2.58;;;;;;;;;;10388503;28;20033;-74
2022/05/22 16:29:16;;;;;;;4.85;1.73;;;;;;;;;;10381227;28;20036;-76
2022/05/22 16:34:20;;;;;;;2.40;1.97;;;;;;;;;;10379106;28;20026;-71
2022/05/22 16:39:20;;;;;;;6.13;1.90;;;;;;;;;;10390141;28;20296;-76
2022/05/22 16:44:20;;;;;;;2.07;1.77;;;;;;;;;;10377370;28;20070;-71
2022/05/22 16:54:40;;;;;;;4.18;1.73;;;;;;;;;;10378059;28;20029;-76
2022/05/22 16:59:41;;;;;;;5.15;2.47;;;;;;;;;;10377388;28;20511;-74
2022/05/22 17:04:41;;;;;;;3.10;1.98;;;;;;;;;;10389303;28;20485;-75
2022/05/22 17:09:43;;;;;;;2.65;1.83;;;;;;;;;;10396089;28;20505;-76
2022/05/22 17:14:45;;;;;;;5.13;2.13;;;;;;;;;;10392821;28;20462;-70
2022/05/22 17:19:46;;;;;;;5.47;2.45;;;;;;;;;;10387470;28;20508;-72
2022/05/22 17:24:57;;;;;;;17.10;2.65;;;;;;;;;;10379888;28;20026;-76
2022/05/22 17:29:58;;;;;;;7.10;2.60;;;;;;;;;;10380157;28;20481;-72
2022/05/22 17:35:06;;;;;;;3.55;2.33;;;;;;;;;;10388697;28;20022;-74
2022/05/22 17:40:06;;;;;;;;;;;;;;;;;;10388585;28;20053;-73
2022/05/22 17:45:07;;;;;;;7.57;2.38;;;;;;;;;;10379049;28;20257;-74
2022/05/22 17:50:07;;;;;;;6.45;2.10;;;;;;;;;;10388818;28;20021;-71
2022/05/22 17:55:08;;;;;;;7.70;2.50;;;;;;;;;;10394845;28;20049;-72
2022/05/22 18:00:09;;;;;;;3.35;2.67;;;;;;;;;;10396942;28;20045;-76
2022/05/22 18:05:10;;;;;;;4.13;2.67;;;;;;;;;;10382920;28;20067;-71
2022/05/22 18:10:13;;;;;;;5.55;2.58;;;;;;;;;;10382208;28;20025;-78
2022/05/22 18:20:33;;;;;;;3.75;2.30;;;;;;;;;;10381771;28;20021;-71
2022/05/22 18:25:34;;;;;;;5.43;2.42;;;;;;;;;;10382908;28;20026;-74
2022/05/22 18:30:35;;;;;;;8.98;2.95;;;;;;;;;;10382545;28;20024;-78
2022/05/22 18:35:35;;;;;;;13.13;3.60;;;;;;;;;;10377338;28;20516;-71
2022/05/22 18:40:36;;;;;;;7.80;3.70;;;;;;;;;;10386207;28;20036;-72
2022/05/22 18:45:38;;;;;;;4.05;2.38;;;;;;;;;;10385375;28;20481;-72
2022/05/22 18:50:38;;;;;;;4.75;3.00;;;;;;;;;;10385204;28;20030;-72
2022/05/22 18:55:39;;;;;;;4.65;3.30;;;;;;;;;;10382648;28;20127;-73
2022/05/22 19:00:41;;;;;;;5.55;3.60;;;;;;;;;;10393763;28;20029;-74
2022/05/22 19:05:41;;;;;;;5.22;3.30;;;;;;;;;;10394246;28;20448;-78
2022/05/22 19:10:42;;;;;;;5.22;3.15;;;;;;;;;;10383018;28;20029;-73
2022/05/22 19:15:42;;;;;;;6.55;3.20;;;;;;;;;;10378484;28;20021;-75
2022/05/22 19:20:43;;;;;;;7.20;3.40;;;;;;;;;;10396235;28;20032;-73
2022/05/22 19:25:44;;;;;;;4.53;2.97;;;;;;;;;;10402888;28;20025;-73
2022/05/22 19:30:47;;;;;;;4.32;2.92;;;;;;;;;;10386474;28;20636;-74
2022/05/22 19:35:47;;;;;;;5.30;3.15;;;;;;;;;;10402952;28;20385;-73
2022/05/22 19:40:48;;;;;;;8.02;3.03;;;;;;;;;;10402828;28;20079;-76
2022/05/22 19:45:48;;;;;;;4.40;3.30;;;;;;;;;;10403771;28;20112;-70
2022/05/22 19:50:48;;;;;;;3.70;2.67;;;;;;;;;;10399970;28;20025;-72
2022/05/22 20:01:12;;;;;;;4.35;3.25;;;;;;;;;;10404688;28;20481;-72
2022/05/22 20:06:14;;;;;;;4.00;3.33;;;;;;;;;;10404327;28;20036;-72
2022/05/22 20:11:20;;;;;;;5.20;3.80;;;;;;;;;;10401622;28;20041;-78
2022/05/22 20:16:32;;;;;;;10.07;3.90;;;;;;;;;;10398670;28;20037;-72
2022/05/22 20:21:34;;;;;;;4.75;4.03;;;;;;;;;;10400000;28;20409;-71
2022/05/22 20:26:34;;;;;;;4.28;3.88;;;;;;;;;;10402194;28;20029;-72
2022/05/22 20:31:34;;;;;;;7.75;3.67;;;;;;;;;;10400643;28;20029;-73
2022/05/22 20:36:35;;;;;;;7.20;5.07;;;;;;;;;;10400547;28;20049;-72
2022/05/22 20:41:37;;;;;;;5.93;4.75;;;;;;;;;;10373826;28;20406;-72
2022/05/22 20:46:37;;;;;;;6.35;4.65;;;;;;;;;;10360703;28;20513;-76
2022/05/22 20:51:38;;;;;;;5.65;4.35;;;;;;;;;;10372924;28;20021;-73
2022/05/22 20:56:49;;;;;;;8.73;4.60;;;;;;;;;;10400224;28;20025;-72
2022/05/22 21:01:50;;;;;;;7.05;4.93;;;;;;;;;;10402817;28;20472;-75
2022/05/22 21:06:50;;;;;;;6.88;4.97;;;;;;;;;;10402284;28;20030;-73
2022/05/22 21:11:52;;;;;;;13.07;6.47;;;;;;;;;;10402700;28;20029;-75
2022/05/22 21:16:53;;;;;;;6.60;5.43;;;;;;;;;;10402770;28;20462;-71
2022/05/22 21:21:53;;;;;;;7.30;5.63;;;;;;;;;;10401314;28;20091;-72
2022/05/22 21:32:13;;;;;;;6.20;5.60;;;;;;;;;;10403367;28;20025;-72
2022/05/22 21:37:13;;;;;;;9.18;5.10;;;;;;;;;;10400584;28;20041;-73
2022/05/22 21:42:13;;;;;;;12.07;6.50;;;;;;;;;;10400857;28;20029;-74
2022/05/22 21:47:14;;;;;;;9.83;5.97;;;;;;;;;;10400673;28;20109;-72
2022/05/22 21:52:14;;;;;;;7.17;5.97;;;;;;;;;;10400299;28;20488;-70
2022/05/22 21:57:17;;;;;;;10.23;6.32;;;;;;;;;;10399422;28;20793;-72
2022/05/22 22:02:19;;;;;;;6.28;5.38;;;;;;;;;;10383647;28;20485;-73
2022/05/22 22:07:20;;;;;;;8.13;5.72;;;;;;;;;;10399790;28;20029;-73
2022/05/22 22:12:20;;;;;;;7.95;5.40;;;;;;;;;;10400201;28;20017;-72
2022/05/22 22:17:20;;;;;;;6.28;5.47;;;;;;;;;;10400664;28;20079;-72
2022/05/22 22:22:21;;;;;;;6.40;5.80;;;;;;;;;;10400685;28;20032;-73
2022/05/22 22:27:23;;;;;;;7.47;5.30;;;;;;;;;;10399294;28;20033;-76
2022/05/22 22:32:23;;;;;;;6.63;5.63;;;;;;;;;;10399900;28;20555;-73
2022/05/22 22:37:23;;;;;;;8.67;5.50;;;;;;;;;;10398924;28;20056;-79
2022/05/22 22:42:24;;;;;;;10.82;7.60;;;;;;;;;;10399149;28;20595;-73
2022/05/22 22:47:26;;;;;;;7.67;5.60;;;;;;;;;;10399822;28;20026;-78
2022/05/22 22:52:26;;;;;;;6.47;4.97;;;;;;;;;;10399030;28;20021;-78
2022/05/22 23:02:45;;;;;;;7.90;4.88;;;;;;;;;;10408053;28;20421;-76
2022/05/22 23:07:46;;;;;;;7.23;5.03;;;;;;;;;;10408283;28;20021;-73
2022/05/22 23:12:46;;;;;;;6.63;4.83;;;;;;;;;;10407431;28;20644;-76
2022/05/22 23:17:47;;;;;;;9.00;5.43;;;;;;;;;;10406511;28;20021;-74
2022/05/22 23:22:47;;;;;;;7.47;5.22;;;;;;;;;;10406753;28;20017;-77
2022/05/22 23:27:49;;;;;;;9.77;5.13;;;;;;;;;;10406781;28;20032;-73
2022/05/22 23:32:50;;;;;;;7.63;4.90;;;;;;;;;;10405424;28;20040;-75
2022/05/22 23:37:56;;;;;;;6.93;4.73;;;;;;;;;;10405522;28;20061;-75
2022/05/22 23:42:56;;;;;;;15.60;5.45;;;;;;;;;;10406950;28;20306;-73
2022/05/22 23:47:56;;;;;;;12.48;6.35;;;;;;;;;;10405661;28;20112;-76
2022/05/22 23:52:57;;;;;;;11.38;6.40;;;;;;;;;;10405620;28;20025;-72
2022/05/22 23:57:58;;;;;;;8.02;6.60;;;;;;;;;;10404486;28;20500;-75
